createdAt,value
2018-12-08T00:02:49.907Z,57.20
2018-12-08T00:05:54.110Z,51.45
2018-12-08T00:08:58.325Z,57.50
2018-12-08T00:12:02.409Z,50.10
2018-12-08T00:15:06.841Z,49.74
2018-12-08T00:18:10.921Z,51.41
2018-12-08T00:21:14.994Z,50.05
2018-12-08T00:24:19.071Z,52.47
2018-12-08T00:27:28.573Z,50.67
2018-12-08T00:30:50.225Z,50.69
2018-12-08T00:33:54.486Z,50.91
2018-12-08T00:36:58.563Z,50.70
2018-12-08T00:40:02.989Z,51.85
2018-12-08T00:43:07.085Z,52.05
2018-12-08T00:46:11.156Z,51.94
2018-12-08T00:49:15.235Z,51.42
2018-12-08T00:55:48.278Z,51.24
2018-12-08T00:58:52.349Z,50.89
2018-12-08T01:01:57.007Z,50.51
2018-12-08T01:05:01.086Z,50.48
2018-12-08T01:08:05.370Z,49.94
2018-12-08T01:11:09.436Z,50.86
2018-12-08T01:14:13.496Z,49.98
2018-12-08T01:17:17.570Z,50.29
2018-12-08T01:20:22.336Z,50.08
2018-12-08T01:23:26.398Z,49.12
2018-12-08T01:26:30.673Z,49.53
2018-12-08T01:29:34.797Z,49.33
2018-12-08T01:32:39.009Z,48.45
2018-12-08T01:35:43.157Z,48.18
2018-12-08T01:38:47.224Z,47.67
2018-12-08T01:45:07.929Z,47.64
2018-12-08T01:48:12.082Z,46.88
2018-12-08T01:51:16.222Z,46.69
2018-12-08T01:54:20.381Z,47.74
2018-12-08T01:57:24.513Z,47.15
2018-12-08T02:00:28.625Z,47.24
2018-12-08T02:03:32.762Z,47.71
2018-12-08T02:06:37.536Z,48.16
2018-12-08T02:09:41.608Z,47.65
2018-12-08T02:12:45.689Z,49.03
2018-12-08T02:15:49.748Z,49.78
2018-12-08T02:18:53.822Z,50.60
2018-12-08T02:21:57.957Z,51.55
2018-12-08T02:25:02.097Z,51.92
2018-12-08T02:28:06.202Z,51.73
2018-12-08T02:31:10.293Z,51.86
2018-12-08T02:34:14.465Z,51.78
2018-12-08T02:37:18.528Z,53.15
2018-12-08T02:40:22.604Z,53.71
2018-12-08T02:43:26.736Z,54.26
2018-12-08T02:46:30.817Z,52.98
2018-12-08T02:49:34.963Z,53.44
2018-12-08T02:52:39.018Z,53.79
2018-12-08T02:55:43.093Z,54.28
2018-12-08T02:58:47.155Z,53.76
2018-12-08T03:01:51.246Z,53.38
2018-12-08T03:04:55.328Z,53.10
2018-12-08T03:07:59.385Z,53.45
2018-12-08T03:11:03.462Z,52.50
2018-12-08T03:14:07.537Z,54.05
2018-12-08T03:17:11.608Z,53.54
2018-12-08T03:20:15.672Z,54.05
2018-12-08T03:23:19.785Z,54.21
2018-12-08T03:26:24.937Z,54.16
2018-12-08T03:29:29.005Z,55.50
2018-12-08T03:32:33.137Z,55.29
2018-12-08T03:35:37.194Z,53.98
2018-12-08T03:38:41.275Z,54.82
2018-12-08T03:41:45.377Z,53.98
2018-12-08T03:44:49.429Z,54.60
2018-12-08T03:47:53.511Z,55.37
2018-12-08T03:50:57.644Z,55.07
2018-12-08T03:54:02.700Z,54.60
2018-12-08T03:57:06.812Z,54.54
2018-12-08T04:00:11.086Z,55.21
2018-12-08T04:03:15.150Z,53.78
2018-12-08T04:06:19.201Z,54.79
2018-12-08T04:09:23.288Z,55.17
2018-12-08T04:12:27.401Z,54.78
2018-12-08T04:15:31.492Z,56.28
2018-12-08T04:18:35.624Z,56.79
2018-12-08T04:21:39.702Z,56.07
2018-12-08T04:24:44.041Z,55.79
2018-12-08T04:27:48.157Z,55.50
2018-12-08T04:30:52.382Z,56.37
2018-12-08T04:33:56.491Z,56.58
2018-12-08T04:37:00.513Z,56.68
2018-12-08T04:40:05.588Z,57.16
2018-12-08T04:43:09.704Z,57.06
2018-12-08T04:46:13.778Z,57.39
2018-12-08T04:49:17.876Z,57.34
2018-12-08T04:52:22.013Z,57.28
2018-12-08T04:55:26.204Z,57.00
2018-12-08T04:58:30.218Z,57.16
2018-12-08T05:01:34.298Z,57.19
2018-12-08T05:04:38.509Z,57.29
2018-12-08T05:07:42.587Z,57.13
2018-12-08T05:10:46.651Z,57.19
2018-12-08T05:13:50.704Z,57.13
2018-12-08T05:16:54.844Z,57.42
2018-12-08T05:19:58.906Z,56.88
2018-12-08T05:23:03.067Z,57.27
2018-12-08T05:26:07.200Z,57.32
2018-12-08T05:29:11.256Z,57.49
2018-12-08T05:32:15.337Z,57.44
2018-12-08T05:35:19.445Z,57.42
2018-12-08T05:38:23.520Z,57.71
2018-12-08T05:41:27.576Z,57.66
2018-12-08T05:44:31.629Z,57.53
2018-12-08T05:47:35.704Z,56.87
2018-12-08T05:50:39.757Z,56.97
2018-12-08T05:53:43.900Z,57.16
2018-12-08T05:56:47.948Z,56.24
2018-12-08T05:59:52.032Z,56.56
2018-12-08T06:02:56.118Z,56.56
2018-12-08T06:06:00.160Z,56.38
2018-12-08T06:09:06.045Z,56.15
2018-12-08T06:12:10.124Z,56.73
2018-12-08T06:15:14.267Z,56.76
2018-12-08T06:18:18.413Z,56.40
2018-12-08T06:21:32.720Z,55.05
2018-12-08T06:24:36.785Z,54.14
2018-12-08T06:27:48.441Z,54.26
2018-12-08T06:30:52.567Z,54.24
2018-12-08T06:33:56.685Z,55.05
2018-12-08T06:37:00.769Z,54.36
2018-12-08T06:40:06.832Z,54.08
2018-12-08T06:43:10.881Z,53.90
2018-12-08T06:49:48.285Z,54.33
2018-12-08T06:52:52.357Z,54.32
2018-12-08T07:02:37.993Z,54.48
2018-12-08T07:05:42.070Z,54.36
2018-12-08T07:08:49.961Z,54.37
2018-12-08T07:11:54.052Z,54.57
2018-12-08T07:14:58.215Z,54.36
2018-12-08T07:18:02.870Z,55.16
2018-12-08T07:24:48.525Z,54.25
2018-12-08T07:27:52.617Z,54.07
2018-12-08T07:30:56.673Z,54.55
2018-12-08T07:34:06.320Z,54.52
2018-12-08T07:40:48.927Z,54.56
2018-12-08T07:43:52.962Z,54.63
2018-12-08T07:50:48.633Z,55.63
2018-12-08T07:53:52.830Z,53.71
2018-12-08T07:56:56.914Z,53.95
2018-12-08T08:03:49.825Z,53.05
2018-12-08T08:06:54.972Z,53.35
2018-12-08T08:09:59.041Z,53.87
2018-12-08T08:13:03.188Z,54.14
2018-12-08T08:16:07.259Z,54.64
2018-12-08T08:19:11.341Z,54.25
2018-12-08T08:22:15.442Z,54.29
2018-12-08T08:25:19.666Z,54.47
2018-12-08T08:28:23.756Z,53.86
2018-12-08T08:31:27.833Z,54.09
2018-12-08T08:34:31.904Z,53.53
2018-12-08T08:37:35.973Z,53.67
2018-12-08T08:40:40.133Z,52.50
2018-12-08T08:43:44.979Z,53.50
2018-12-08T08:46:49.099Z,52.75
2018-12-08T08:49:53.217Z,52.22
2018-12-08T08:52:57.433Z,51.58
2018-12-08T08:56:01.830Z,52.38
2018-12-08T08:59:05.924Z,52.12
2018-12-08T09:02:10.066Z,51.01
2018-12-08T09:05:14.141Z,52.00
2018-12-08T09:08:18.196Z,51.65
2018-12-08T09:11:22.336Z,52.04
2018-12-08T09:14:26.379Z,51.45
2018-12-08T09:17:30.472Z,51.75
2018-12-08T09:20:34.575Z,52.04
2018-12-08T09:23:38.622Z,52.06
2018-12-08T09:26:42.760Z,52.17
2018-12-08T09:29:46.881Z,52.46
2018-12-08T09:32:51.052Z,51.72
2018-12-08T09:35:55.235Z,51.94
2018-12-08T09:38:59.307Z,51.94
2018-12-08T09:42:03.394Z,50.77
2018-12-08T09:45:07.683Z,51.01
2018-12-08T09:48:11.764Z,50.73
2018-12-08T09:51:15.941Z,51.63
2018-12-08T09:54:20.014Z,50.94
2018-12-08T09:57:24.101Z,50.20
2018-12-08T10:00:28.150Z,50.30
2018-12-08T10:03:32.217Z,50.63
2018-12-08T10:06:36.442Z,50.97
2018-12-08T10:09:40.630Z,51.07
2018-12-08T10:12:44.797Z,51.17
2018-12-08T10:15:48.862Z,50.73
2018-12-08T10:18:52.972Z,51.40
2018-12-08T10:21:57.025Z,51.86
2018-12-08T10:25:01.108Z,51.98
2018-12-08T10:28:05.181Z,51.25
2018-12-08T10:31:09.393Z,52.04
2018-12-08T10:34:13.586Z,51.15
2018-12-08T10:37:17.667Z,51.08
2018-12-08T10:40:21.734Z,52.28
2018-12-08T10:43:25.805Z,52.09
2018-12-08T10:46:29.948Z,53.20
2018-12-08T10:49:34.035Z,53.25
2018-12-08T10:52:38.107Z,53.03
2018-12-08T10:55:44.166Z,52.89
2018-12-08T10:58:48.210Z,53.44
2018-12-08T11:05:21.285Z,53.78
2018-12-08T11:08:25.345Z,55.19
2018-12-08T11:11:29.489Z,51.39
2018-12-08T11:14:33.572Z,52.29
2018-12-08T11:17:48.779Z,52.09
2018-12-08T11:20:52.869Z,51.22
2018-12-08T11:23:57.017Z,48.01
2018-12-08T11:27:01.147Z,48.27
2018-12-08T11:30:05.839Z,49.82
2018-12-08T11:33:09.945Z,50.14
2018-12-08T11:39:50.266Z,50.67
2018-12-08T11:42:54.359Z,51.19
2018-12-08T11:45:58.461Z,52.24
2018-12-08T11:49:02.575Z,51.19
2018-12-08T11:52:06.716Z,51.32
2018-12-08T11:58:48.797Z,52.87
2018-12-08T12:01:53.014Z,52.12
2018-12-08T12:04:57.105Z,53.27
2018-12-08T12:08:13.098Z,53.44
2018-12-08T12:11:17.339Z,52.59
2018-12-08T12:14:47.277Z,52.96
2018-12-08T12:17:51.441Z,52.82
2018-12-08T12:20:55.514Z,53.77
2018-12-08T12:23:59.660Z,53.93
2018-12-08T12:27:03.790Z,53.00
2018-12-08T12:30:09.689Z,53.56
2018-12-08T12:33:13.765Z,52.66
2018-12-08T12:36:17.862Z,53.17
2018-12-08T12:39:21.941Z,52.92
2018-12-08T12:45:50.629Z,53.64
2018-12-08T12:48:54.737Z,53.87
2018-12-08T12:51:58.841Z,54.51
2018-12-08T12:55:02.984Z,55.13
2018-12-08T12:58:07.049Z,54.60
2018-12-08T13:01:11.187Z,54.54
2018-12-08T13:04:15.342Z,54.23
2018-12-08T13:07:19.429Z,54.30
2018-12-08T13:10:23.510Z,54.23
2018-12-08T13:13:27.619Z,54.30
2018-12-08T13:16:48.279Z,54.22
2018-12-08T13:19:52.343Z,53.92
2018-12-08T13:22:56.415Z,54.12
2018-12-08T13:26:00.485Z,54.09
2018-12-08T13:29:04.549Z,54.97
2018-12-08T13:32:08.633Z,55.92
2018-12-08T13:39:04.695Z,56.15
2018-12-08T13:42:08.782Z,56.57
2018-12-08T13:45:17.161Z,57.76
2018-12-08T13:48:21.514Z,56.91
2018-12-08T13:51:25.584Z,55.84
2018-12-08T13:54:48.254Z,55.87
2018-12-08T13:57:52.345Z,55.82
2018-12-08T14:00:56.444Z,56.58
2018-12-08T14:04:00.521Z,56.55
2018-12-08T14:07:04.572Z,56.28
2018-12-08T14:10:09.754Z,56.69
2018-12-08T14:13:13.894Z,56.78
2018-12-08T14:16:17.966Z,56.99
2018-12-08T14:19:22.069Z,57.48
2018-12-08T14:22:26.155Z,58.25
2018-12-08T14:28:50.106Z,58.27
2018-12-08T14:31:54.632Z,58.88
2018-12-08T14:34:58.777Z,57.75
2018-12-08T14:38:02.905Z,58.29
2018-12-08T14:41:07.049Z,58.21
2018-12-08T14:44:11.155Z,57.52
2018-12-08T14:47:15.245Z,57.81
2018-12-08T14:50:19.342Z,57.16
2018-12-08T14:53:23.465Z,57.80
2018-12-08T14:56:27.639Z,57.86
2018-12-08T14:59:48.660Z,57.36
2018-12-08T15:02:52.767Z,57.67
2018-12-08T15:05:56.851Z,58.22
2018-12-08T15:09:01.578Z,57.92
2018-12-08T15:12:06.755Z,57.74
2018-12-08T15:15:10.957Z,57.59
2018-12-08T15:25:48.291Z,58.08
2018-12-08T15:32:07.234Z,57.07
2018-12-08T15:45:50.730Z,56.63
2018-12-08T15:48:54.818Z,55.76
2018-12-08T15:51:58.950Z,55.59
2018-12-08T15:55:03.035Z,55.84
2018-12-08T15:58:07.114Z,54.82
2018-12-08T16:11:47.954Z,54.86
2018-12-08T16:18:07.205Z,55.43
2018-12-08T16:39:10.826Z,56.00
2018-12-08T16:42:14.928Z,55.42
2018-12-08T16:45:20.416Z,54.89
2018-12-08T16:48:24.492Z,55.31
2018-12-08T16:51:28.628Z,54.79
2018-12-08T16:54:32.824Z,55.63
2018-12-08T16:57:36.881Z,55.57
2018-12-08T17:00:41.141Z,55.33
2018-12-08T17:03:45.394Z,55.05
2018-12-08T17:06:50.531Z,54.67
2018-12-08T17:09:54.743Z,54.09
2018-12-08T17:12:58.834Z,54.92
2018-12-08T17:16:03.157Z,54.22
2018-12-08T17:19:07.314Z,54.21
2018-12-08T17:22:11.767Z,54.11
2018-12-08T17:25:15.933Z,54.74
2018-12-08T17:28:20.030Z,54.87
2018-12-08T17:31:24.136Z,54.14
2018-12-08T17:34:28.275Z,54.42
2018-12-08T17:37:32.466Z,54.80
2018-12-08T17:40:36.529Z,53.83
2018-12-08T17:43:40.631Z,54.33
2018-12-08T17:46:44.739Z,54.48
2018-12-08T17:49:48.862Z,54.39
2018-12-08T17:52:52.917Z,54.33
2018-12-08T17:55:56.986Z,54.06
2018-12-08T17:59:01.077Z,54.10
2018-12-08T18:02:05.458Z,53.90
2018-12-08T18:05:09.757Z,54.34
2018-12-08T18:08:13.884Z,54.02
2018-12-08T18:11:17.955Z,54.65
2018-12-08T18:14:22.011Z,54.48
2018-12-08T18:17:26.099Z,54.98
2018-12-08T18:20:30.179Z,55.21
2018-12-08T18:23:34.240Z,55.05
2018-12-08T18:26:38.330Z,55.16
2018-12-08T18:29:42.410Z,55.25
2018-12-08T18:32:46.548Z,55.60
2018-12-08T18:35:50.619Z,54.78
2018-12-08T18:38:54.698Z,55.11
2018-12-08T18:42:00.822Z,55.39
2018-12-08T18:45:06.322Z,55.45
2018-12-08T18:48:10.467Z,55.10
2018-12-08T18:51:14.596Z,55.02
2018-12-08T18:54:18.672Z,55.23
2018-12-08T18:57:22.760Z,55.31
2018-12-08T19:00:26.968Z,54.34
2018-12-08T19:03:31.040Z,54.29
2018-12-08T19:06:35.121Z,54.58
2018-12-08T19:09:39.189Z,54.55
2018-12-08T19:12:43.262Z,55.33
2018-12-08T19:15:47.314Z,54.71
2018-12-08T19:18:52.380Z,54.77
2018-12-08T19:21:56.511Z,54.44
2018-12-08T19:25:00.582Z,54.47
2018-12-08T19:28:04.870Z,54.36
2018-12-08T19:31:08.996Z,54.79
2018-12-08T19:41:47.679Z,55.50
2018-12-08T19:44:51.764Z,55.41
2018-12-08T19:47:55.824Z,54.89
2018-12-08T19:50:59.917Z,55.25
2018-12-08T19:54:04.115Z,55.59
2018-12-08T19:57:08.210Z,55.90
2018-12-08T20:00:12.459Z,55.69
2018-12-08T20:03:17.847Z,55.97
2018-12-08T20:06:21.937Z,57.27
2018-12-08T20:09:26.006Z,56.71
2018-12-08T20:12:30.072Z,56.93
2018-12-08T20:15:35.154Z,57.47
2018-12-08T20:21:50.372Z,57.55
2018-12-08T20:24:54.493Z,57.26
2018-12-08T20:27:58.567Z,58.07
2018-12-08T20:31:02.632Z,57.30
2018-12-08T20:34:06.718Z,57.75
2018-12-08T20:37:10.798Z,57.93
2018-12-08T20:40:14.950Z,58.05
2018-12-08T20:43:19.017Z,57.43
2018-12-08T20:46:23.072Z,57.86
2018-12-08T20:49:28.121Z,58.37
2018-12-08T20:52:33.090Z,58.12
2018-12-08T20:55:37.165Z,59.05
2018-12-08T20:58:41.251Z,58.19
2018-12-08T21:01:45.330Z,58.88
2018-12-08T21:04:49.399Z,59.17
2018-12-08T21:07:53.461Z,59.47
2018-12-08T21:10:58.502Z,59.22
2018-12-08T21:14:02.721Z,60.40
2018-12-08T21:17:06.784Z,60.87
2018-12-08T21:20:10.871Z,60.69
2018-12-08T21:23:14.946Z,60.33
2018-12-08T21:26:19.076Z,59.45
2018-12-08T21:29:23.155Z,58.87
2018-12-08T21:32:27.210Z,59.53
2018-12-08T21:35:31.302Z,58.66
2018-12-08T21:38:35.370Z,59.53
2018-12-08T21:41:39.430Z,59.43
2018-12-08T21:44:43.512Z,58.71
2018-12-08T21:47:47.613Z,59.01
2018-12-08T21:50:51.696Z,59.51
2018-12-08T21:53:55.757Z,58.46
2018-12-08T21:57:00.811Z,59.04
2018-12-08T22:00:07.657Z,59.67
2018-12-08T22:03:11.797Z,58.75
2018-12-08T22:06:15.882Z,60.56
2018-12-08T22:09:19.993Z,61.29
2018-12-08T22:12:24.080Z,60.81
2018-12-08T22:15:28.142Z,61.48
2018-12-08T22:18:32.236Z,61.03
2018-12-08T22:21:36.317Z,61.55
2018-12-08T22:24:40.365Z,61.28
2018-12-08T22:27:44.474Z,60.80
2018-12-08T22:30:50.348Z,59.97
2018-12-08T22:33:54.468Z,60.01
2018-12-08T22:36:58.538Z,60.18
2018-12-08T22:40:02.677Z,59.83
2018-12-08T22:43:06.749Z,59.74
2018-12-08T22:46:10.813Z,60.03
2018-12-08T22:49:14.891Z,59.91
2018-12-08T22:52:18.957Z,58.63
2018-12-08T22:55:23.028Z,58.90
2018-12-08T22:58:27.111Z,58.85
2018-12-08T23:01:32.707Z,58.54
2018-12-08T23:04:37.591Z,58.97
2018-12-08T23:07:41.714Z,58.03
2018-12-08T23:10:45.942Z,58.36
2018-12-08T23:17:08.953Z,57.84
2018-12-08T23:20:13.184Z,58.01
2018-12-08T23:23:17.252Z,57.53
2018-12-08T23:26:21.345Z,57.37
2018-12-08T23:29:25.473Z,57.62
2018-12-08T23:32:29.578Z,57.38
2018-12-08T23:35:33.671Z,57.70
2018-12-08T23:38:37.806Z,58.26
2018-12-08T23:41:41.954Z,58.02
2018-12-08T23:44:46.085Z,58.69
2018-12-08T23:47:50.205Z,58.58
2018-12-08T23:54:47.860Z,58.33
